KCRO2: Canadian River nr Konowa, OK

Data processed at Thu Jan 04 2018 23:52


All information presented herein is the property of the government of the United States of America and may be revised or deleted at any time without prior notice.
Dissemination of this information without the expressed written consent of the Public Affairs Office, Tulsa District U.S. Army Corps of Engineers is strictly prohibited.
These data are gathered electronically and, as presented, have not undergone any form of quality control. These data are not guaranteed to be valid or correct.
Go to home page.
Go to station list.


Previous Day
Next Day
Current Day


    
SHEF ID:       KCRO2     Canadian River nr Konowa, OK
STATION TYPE:  

                STAGE  RIV-FLOW   VOLTAGE  BAT-LOAD
                   ft       cfs      volt      volt
              Ccp-Rev   Ccp-Rev   Ccp-Rev   Ccp-Rev
(US/Central)
01/02 00:00      8.80       421     12.57     12.25
01/02 01:00      8.73       355     12.49     12.17
01/02 02:00      8.71       336     12.41     12.17
01/02 03:00      8.63       261     12.41     12.09
01/02 04:00      8.56       195     12.41     12.09
01/02 05:00      8.48       119     12.33     12.09
01/02 06:00      8.54       176     12.33     12.01
01/02 07:00      8.66       289     12.33     12.01
01/02 08:00      8.70       327     12.17     12.01
01/02 09:00      8.76       383     12.41     12.09
01/02 10:00      8.79       411     12.41     12.09
01/02 11:00      8.85       468     12.57     12.25
01/02 12:00      8.86       477     12.49     12.09
01/02 13:00      8.92       534     12.57     12.25
01/02 14:00      8.94       552     12.65     12.41
01/02 15:00      8.93       543     12.49     12.25
01/02 16:00      8.91       524     12.41     12.09
01/02 17:00      8.89       505     12.41     12.09
01/02 18:00      8.86       477     12.41     12.09
01/02 19:00      8.85       468     12.41     12.09
01/02 20:00      8.84       458     12.33     12.09
01/02 21:00      8.83       449     12.33     12.09
01/02 22:00      8.82       440     12.33     12.09
01/02 23:00      8.83       449     12.33     12.09